sensor_id;sensor_type;location;lat;lon;timestamp;pressure;altitude;pressure_sealevel;temperature;humidity
68193;BME280;55012;47.562;18.414;2022-12-18T00:01:32;101058.59;;;-4.72;100.00
68193;BME280;55012;47.562;18.414;2022-12-18T00:03:59;101051.69;;;-4.73;100.00
68193;BME280;55012;47.562;18.414;2022-12-18T00:06:26;101069.97;;;-4.72;100.00
68193;BME280;55012;47.562;18.414;2022-12-18T00:08:53;101060.44;;;-4.73;100.00
68193;BME280;55012;47.562;18.414;2022-12-18T00:11:22;101060.44;;;-4.73;100.00
68193;BME280;55012;47.562;18.414;2022-12-18T00:13:48;101062.91;;;-4.71;100.00
68193;BME280;55012;47.562;18.414;2022-12-18T00:16:17;101075.25;;;-4.72;100.00
68193;BME280;55012;47.562;18.414;2022-12-18T00:18:45;101073.84;;;-4.74;100.00
68193;BME280;55012;47.562;18.414;2022-12-18T00:21:12;101085.81;;;-4.72;100.00
68193;BME280;55012;47.562;18.414;2022-12-18T00:23:39;101082.19;;;-4.71;100.00
68193;BME280;55012;47.562;18.414;2022-12-18T00:26:07;101107.38;;;-4.68;100.00
68193;BME280;55012;47.562;18.414;2022-12-18T00:28:35;101099.25;;;-4.67;100.00
68193;BME280;55012;47.562;18.414;2022-12-18T00:31:06;101096.03;;;-4.62;100.00
68193;BME280;55012;47.562;18.414;2022-12-18T00:33:33;101107.00;;;-4.59;100.00
68193;BME280;55012;47.562;18.414;2022-12-18T00:36:20;101095.19;;;-4.56;100.00
68193;BME280;55012;47.562;18.414;2022-12-18T00:38:46;101111.88;;;-4.49;100.00
68193;BME280;55012;47.562;18.414;2022-12-18T00:41:14;101105.59;;;-4.48;100.00
68193;BME280;55012;47.562;18.414;2022-12-18T00:44:00;101127.34;;;-4.46;100.00
68193;BME280;55012;47.562;18.414;2022-12-18T00:46:26;101116.34;;;-4.49;100.00
68193;BME280;55012;47.562;18.414;2022-12-18T00:48:51;101132.81;;;-4.47;100.00
68193;BME280;55012;47.562;18.414;2022-12-18T00:51:17;101139.09;;;-4.48;100.00
68193;BME280;55012;47.562;18.414;2022-12-18T00:53:42;101134.47;;;-4.46;100.00
68193;BME280;55012;47.562;18.414;2022-12-18T00:56:07;101139.13;;;-4.42;100.00
68193;BME280;55012;47.562;18.414;2022-12-18T00:58:33;101125.72;;;-4.40;100.00
68193;BME280;55012;47.562;18.414;2022-12-18T01:00:58;101137.31;;;-4.35;100.00
68193;BME280;55012;47.562;18.414;2022-12-18T01:03:24;101133.47;;;-4.32;100.00
68193;BME280;55012;47.562;18.414;2022-12-18T01:05:49;101135.50;;;-4.28;100.00
68193;BME280;55012;47.562;18.414;2022-12-18T01:08:14;101142.00;;;-4.24;100.00
68193;BME280;55012;47.562;18.414;2022-12-18T01:10:40;101149.53;;;-4.14;100.00
68193;BME280;55012;47.562;18.414;2022-12-18T01:13:06;101140.22;;;-4.03;100.00
68193;BME280;55012;47.562;18.414;2022-12-18T01:15:31;101137.38;;;-3.95;100.00
68193;BME280;55012;47.562;18.414;2022-12-18T01:17:57;101144.72;;;-3.97;100.00
68193;BME280;55012;47.562;18.414;2022-12-18T01:20:22;101140.00;;;-4.02;100.00
68193;BME280;55012;47.562;18.414;2022-12-18T01:22:48;101143.66;;;-4.09;100.00
68193;BME280;55012;47.562;18.414;2022-12-18T01:25:13;101142.81;;;-4.23;100.00
68193;BME280;55012;47.562;18.414;2022-12-18T01:27:39;101151.94;;;-4.32;100.00
68193;BME280;55012;47.562;18.414;2022-12-18T01:30:04;101161.50;;;-4.38;100.00
68193;BME280;55012;47.562;18.414;2022-12-18T01:32:31;101160.47;;;-4.43;100.00
68193;BME280;55012;47.562;18.414;2022-12-18T01:34:56;101163.31;;;-4.45;100.00
68193;BME280;55012;47.562;18.414;2022-12-18T01:37:22;101165.31;;;-4.47;100.00
68193;BME280;55012;47.562;18.414;2022-12-18T01:39:47;101162.50;;;-4.45;100.00
68193;BME280;55012;47.562;18.414;2022-12-18T01:42:15;101165.13;;;-4.45;100.00
68193;BME280;55012;47.562;18.414;2022-12-18T01:47:26;101163.50;;;-4.46;100.00
68193;BME280;55012;47.562;18.414;2022-12-18T01:49:53;101177.09;;;-4.49;100.00
68193;BME280;55012;47.562;18.414;2022-12-18T01:52:19;101174.06;;;-4.53;100.00
68193;BME280;55012;47.562;18.414;2022-12-18T01:54:46;101184.19;;;-4.57;100.00
68193;BME280;55012;47.562;18.414;2022-12-18T01:57:13;101181.34;;;-4.55;100.00
68193;BME280;55012;47.562;18.414;2022-12-18T01:59:39;101183.78;;;-4.60;100.00
68193;BME280;55012;47.562;18.414;2022-12-18T02:02:07;101189.88;;;-4.60;100.00
68193;BME280;55012;47.562;18.414;2022-12-18T02:04:33;101200.63;;;-4.61;100.00
68193;BME280;55012;47.562;18.414;2022-12-18T02:07:20;101187.00;;;-4.65;100.00
68193;BME280;55012;47.562;18.414;2022-12-18T02:12:23;101199.13;;;-4.77;100.00
68193;BME280;55012;47.562;18.414;2022-12-18T02:14:58;101208.66;;;-4.83;100.00
68193;BME280;55012;47.562;18.414;2022-12-18T02:18:23;101216.16;;;-4.86;100.00
68193;BME280;55012;47.562;18.414;2022-12-18T02:20:55;101224.44;;;-4.89;100.00
68193;BME280;55012;47.562;18.414;2022-12-18T02:23:44;101228.09;;;-4.90;100.00
68193;BME280;55012;47.562;18.414;2022-12-18T02:26:36;101221.38;;;-4.93;100.00
68193;BME280;55012;47.562;18.414;2022-12-18T02:29:13;101231.69;;;-4.98;100.00
68193;BME280;55012;47.562;18.414;2022-12-18T02:31:49;101222.91;;;-5.05;100.00
68193;BME280;55012;47.562;18.414;2022-12-18T02:34:17;101239.75;;;-5.06;100.00
68193;BME280;55012;47.562;18.414;2022-12-18T02:36:45;101233.63;;;-5.13;100.00
68193;BME280;55012;47.562;18.414;2022-12-18T02:39:13;101232.19;;;-5.16;100.00
68193;BME280;55012;47.562;18.414;2022-12-18T02:41:40;101238.69;;;-5.18;100.00
68193;BME280;55012;47.562;18.414;2022-12-18T02:44:11;101239.06;;;-5.21;100.00
68193;BME280;55012;47.562;18.414;2022-12-18T02:46:42;101231.53;;;-5.24;100.00
68193;BME280;55012;47.562;18.414;2022-12-18T02:51:52;101238.81;;;-5.26;100.00
68193;BME280;55012;47.562;18.414;2022-12-18T02:56:58;101233.09;;;-5.30;100.00
68193;BME280;55012;47.562;18.414;2022-12-18T02:59:41;101248.09;;;-5.30;100.00
68193;BME280;55012;47.562;18.414;2022-12-18T03:02:19;101258.66;;;-5.30;100.00
68193;BME280;55012;47.562;18.414;2022-12-18T03:07:44;101262.50;;;-5.33;100.00
68193;BME280;55012;47.562;18.414;2022-12-18T03:10:15;101257.63;;;-5.36;100.00
68193;BME280;55012;47.562;18.414;2022-12-18T03:12:54;101254.16;;;-5.37;100.00
68193;BME280;55012;47.562;18.414;2022-12-18T03:15:28;101256.16;;;-5.39;100.00
68193;BME280;55012;47.562;18.414;2022-12-18T03:18:08;101252.72;;;-5.39;100.00
68193;BME280;55012;47.562;18.414;2022-12-18T03:20:37;101252.47;;;-5.44;100.00
68193;BME280;55012;47.562;18.414;2022-12-18T03:23:09;101261.22;;;-5.44;100.00
68193;BME280;55012;47.562;18.414;2022-12-18T03:25:39;101261.56;;;-5.47;100.00
68193;BME280;55012;47.562;18.414;2022-12-18T03:28:09;101263.38;;;-5.47;100.00
68193;BME280;55012;47.562;18.414;2022-12-18T03:30:37;101267.22;;;-5.50;100.00
68193;BME280;55012;47.562;18.414;2022-12-18T03:35:36;101276.16;;;-5.51;100.00
68193;BME280;55012;47.562;18.414;2022-12-18T03:38:02;101275.53;;;-5.53;100.00
68193;BME280;55012;47.562;18.414;2022-12-18T03:46:17;101279.19;;;-5.54;100.00
68193;BME280;55012;47.562;18.414;2022-12-18T03:48:52;101285.44;;;-5.55;100.00
68193;BME280;55012;47.562;18.414;2022-12-18T03:51:43;101290.28;;;-5.58;100.00
68193;BME280;55012;47.562;18.414;2022-12-18T03:54:13;101286.81;;;-5.59;100.00
68193;BME280;55012;47.562;18.414;2022-12-18T03:56:42;101288.06;;;-5.55;100.00
68193;BME280;55012;47.562;18.414;2022-12-18T03:59:11;101292.16;;;-5.52;100.00
68193;BME280;55012;47.562;18.414;2022-12-18T04:01:41;101290.34;;;-5.52;100.00
68193;BME280;55012;47.562;18.414;2022-12-18T04:04:09;101287.50;;;-5.50;100.00
68193;BME280;55012;47.562;18.414;2022-12-18T04:06:36;101289.13;;;-5.49;100.00
68193;BME280;55012;47.562;18.414;2022-12-18T04:09:02;101290.78;;;-5.48;100.00
68193;BME280;55012;47.562;18.414;2022-12-18T04:11:28;101280.03;;;-5.47;100.00
68193;BME280;55012;47.562;18.414;2022-12-18T04:13:57;101292.03;;;-5.44;100.00
68193;BME280;55012;47.562;18.414;2022-12-18T04:16:24;101292.47;;;-5.41;100.00
68193;BME280;55012;47.562;18.414;2022-12-18T04:18:49;101295.38;;;-5.35;100.00
68193;BME280;55012;47.562;18.414;2022-12-18T04:21:15;101296.78;;;-5.33;100.00
68193;BME280;55012;47.562;18.414;2022-12-18T04:23:40;101294.78;;;-5.31;100.00
68193;BME280;55012;47.562;18.414;2022-12-18T04:26:05;101299.50;;;-5.26;100.00
68193;BME280;55012;47.562;18.414;2022-12-18T04:28:31;101303.16;;;-5.27;100.00
68193;BME280;55012;47.562;18.414;2022-12-18T04:30:56;101307.41;;;-5.26;100.00
68193;BME280;55012;47.562;18.414;2022-12-18T04:33:22;101309.22;;;-5.27;100.00
68193;BME280;55012;47.562;18.414;2022-12-18T04:35:47;101314.31;;;-5.25;100.00
68193;BME280;55012;47.562;18.414;2022-12-18T04:38:13;101314.94;;;-5.23;100.00
68193;BME280;55012;47.562;18.414;2022-12-18T04:40:38;101312.50;;;-5.25;100.00
68193;BME280;55012;47.562;18.414;2022-12-18T04:43:04;101318.59;;;-5.24;100.00
68193;BME280;55012;47.562;18.414;2022-12-18T04:45:31;101327.13;;;-5.22;100.00
68193;BME280;55012;47.562;18.414;2022-12-18T04:48:00;101329.75;;;-5.22;100.00
68193;BME280;55012;47.562;18.414;2022-12-18T04:50:26;101322.66;;;-5.22;100.00
68193;BME280;55012;47.562;18.414;2022-12-18T04:52:51;101330.56;;;-5.22;100.00
68193;BME280;55012;47.562;18.414;2022-12-18T04:55:17;101335.69;;;-5.20;100.00
68193;BME280;55012;47.562;18.414;2022-12-18T04:57:42;101340.16;;;-5.21;100.00
68193;BME280;55012;47.562;18.414;2022-12-18T05:00:09;101340.75;;;-5.19;100.00
68193;BME280;55012;47.562;18.414;2022-12-18T05:02:34;101342.78;;;-5.21;100.00
68193;BME280;55012;47.562;18.414;2022-12-18T05:05:00;101346.84;;;-5.18;100.00
68193;BME280;55012;47.562;18.414;2022-12-18T05:07:25;101345.03;;;-5.18;100.00
68193;BME280;55012;47.562;18.414;2022-12-18T05:09:51;101341.78;;;-5.20;100.00
68193;BME280;55012;47.562;18.414;2022-12-18T05:12:16;101341.13;;;-5.22;100.00
68193;BME280;55012;47.562;18.414;2022-12-18T05:14:41;101342.59;;;-5.19;100.00
68193;BME280;55012;47.562;18.414;2022-12-18T05:17:07;101340.97;;;-5.20;100.00
68193;BME280;55012;47.562;18.414;2022-12-18T05:19:32;101350.69;;;-5.21;100.00
68193;BME280;55012;47.562;18.414;2022-12-18T05:21:58;101350.03;;;-5.23;100.00
68193;BME280;55012;47.562;18.414;2022-12-18T05:24:23;101347.19;;;-5.28;100.00
68193;BME280;55012;47.562;18.414;2022-12-18T05:26:49;101354.63;;;-5.31;100.00
68193;BME280;55012;47.562;18.414;2022-12-18T05:29:14;101363.56;;;-5.32;100.00
68193;BME280;55012;47.562;18.414;2022-12-18T05:31:40;101370.47;;;-5.31;100.00
68193;BME280;55012;47.562;18.414;2022-12-18T05:34:06;101374.56;;;-5.29;100.00
68193;BME280;55012;47.562;18.414;2022-12-18T05:36:31;101374.56;;;-5.29;100.00
68193;BME280;55012;47.562;18.414;2022-12-18T05:38:57;101369.84;;;-5.33;100.00
68193;BME280;55012;47.562;18.414;2022-12-18T05:41:22;101379.16;;;-5.38;100.00
68193;BME280;55012;47.562;18.414;2022-12-18T05:43:48;101380.31;;;-5.40;100.00
68193;BME280;55012;47.562;18.414;2022-12-18T05:46:15;101375.03;;;-5.40;100.00
68193;BME280;55012;47.562;18.414;2022-12-18T05:48:42;101379.31;;;-5.39;100.00
68193;BME280;55012;47.562;18.414;2022-12-18T05:51:15;101380.13;;;-5.39;100.00
68193;BME280;55012;47.562;18.414;2022-12-18T05:53:42;101391.13;;;-5.35;100.00
68193;BME280;55012;47.562;18.414;2022-12-18T05:56:10;101388.69;;;-5.37;100.00
68193;BME280;55012;47.562;18.414;2022-12-18T05:58:36;101395.78;;;-5.37;100.00
68193;BME280;55012;47.562;18.414;2022-12-18T06:01:17;101393.16;;;-5.37;100.00
68193;BME280;55012;47.562;18.414;2022-12-18T06:03:43;101387.88;;;-5.37;100.00
68193;BME280;55012;47.562;18.414;2022-12-18T06:06:16;101392.34;;;-5.38;100.00
68193;BME280;55012;47.562;18.414;2022-12-18T06:08:41;101389.81;;;-5.46;100.00
68193;BME280;55012;47.562;18.414;2022-12-18T06:11:07;101396.84;;;-5.53;100.00
68193;BME280;55012;47.562;18.414;2022-12-18T06:13:32;101407.38;;;-5.53;100.00
68193;BME280;55012;47.562;18.414;2022-12-18T06:15:58;101409.44;;;-5.48;100.00
68193;BME280;55012;47.562;18.414;2022-12-18T06:18:23;101408.09;;;-5.44;100.00
68193;BME280;55012;47.562;18.414;2022-12-18T06:20:55;101411.72;;;-5.45;100.00
68193;BME280;55012;47.562;18.414;2022-12-18T06:23:21;101418.56;;;-5.51;100.00
68193;BME280;55012;47.562;18.414;2022-12-18T06:25:47;101423.81;;;-5.51;100.00
68193;BME280;55012;47.562;18.414;2022-12-18T06:28:12;101417.81;;;-5.45;100.00
68193;BME280;55012;47.562;18.414;2022-12-18T06:30:37;101429.41;;;-5.39;100.00
68193;BME280;55012;47.562;18.414;2022-12-18T06:33:03;101427.59;;;-5.39;100.00
68193;BME280;55012;47.562;18.414;2022-12-18T06:35:28;101429.25;;;-5.38;100.00
68193;BME280;55012;47.562;18.414;2022-12-18T06:37:54;101434.97;;;-5.34;100.00
68193;BME280;55012;47.562;18.414;2022-12-18T06:40:19;101438.63;;;-5.35;100.00
68193;BME280;55012;47.562;18.414;2022-12-18T06:42:45;101441.25;;;-5.35;100.00
68193;BME280;55012;47.562;18.414;2022-12-18T06:45:10;101440.44;;;-5.35;100.00
68193;BME280;55012;47.562;18.414;2022-12-18T06:47:36;101452.63;;;-5.34;100.00
68193;BME280;55012;47.562;18.414;2022-12-18T06:50:02;101454.88;;;-5.31;100.00
68193;BME280;55012;47.562;18.414;2022-12-18T06:52:27;101460.81;;;-5.29;100.00
68193;BME280;55012;47.562;18.414;2022-12-18T06:54:53;101465.88;;;-5.28;100.00
68193;BME280;55012;47.562;18.414;2022-12-18T06:57:18;101471.16;;;-5.28;100.00
68193;BME280;55012;47.562;18.414;2022-12-18T06:59:44;101474.25;;;-5.24;100.00
68193;BME280;55012;47.562;18.414;2022-12-18T07:02:12;101479.97;;;-5.21;100.00
68193;BME280;55012;47.562;18.414;2022-12-18T07:04:38;101474.84;;;-5.22;100.00
68193;BME280;55012;47.562;18.414;2022-12-18T07:07:03;101478.50;;;-5.23;100.00
68193;BME280;55012;47.562;18.414;2022-12-18T07:09:29;101501.25;;;-5.22;100.00
68193;BME280;55012;47.562;18.414;2022-12-18T07:11:54;101504.88;;;-5.23;100.00
68193;BME280;55012;47.562;18.414;2022-12-18T07:14:20;101501.91;;;-5.20;100.00
68193;BME280;55012;47.562;18.414;2022-12-18T07:16:45;101498.06;;;-5.18;100.00
68193;BME280;55012;47.562;18.414;2022-12-18T07:19:11;101508.63;;;-5.18;100.00
68193;BME280;55012;47.562;18.414;2022-12-18T07:21:36;101511.88;;;-5.16;100.00
68193;BME280;55012;47.562;18.414;2022-12-18T07:24:02;101521.00;;;-5.18;100.00
68193;BME280;55012;47.562;18.414;2022-12-18T07:26:27;101521.81;;;-5.18;100.00
68193;BME280;55012;47.562;18.414;2022-12-18T07:28:55;101532.09;;;-5.23;100.00
68193;BME280;55012;47.562;18.414;2022-12-18T07:31:22;101539.09;;;-5.30;100.00
68193;BME280;55012;47.562;18.414;2022-12-18T07:33:49;101543.94;;;-5.33;100.00
68193;BME280;55012;47.562;18.414;2022-12-18T07:36:15;101545.47;;;-5.39;100.00
68193;BME280;55012;47.562;18.414;2022-12-18T07:38:41;101552.13;;;-5.43;100.00
68193;BME280;55012;47.562;18.414;2022-12-18T07:41:12;101567.16;;;-5.44;100.00
68193;BME280;55012;47.562;18.414;2022-12-18T07:43:41;101571.59;;;-5.44;100.00
68193;BME280;55012;47.562;18.414;2022-12-18T07:46:08;101582.41;;;-5.39;100.00
68193;BME280;55012;47.562;18.414;2022-12-18T07:48:34;101576.59;;;-5.34;100.00
68193;BME280;55012;47.562;18.414;2022-12-18T07:51:00;101579.66;;;-5.31;100.00
68193;BME280;55012;47.562;18.414;2022-12-18T07:53:26;101588.88;;;-5.27;100.00
68193;BME280;55012;47.562;18.414;2022-12-18T07:55:56;101586.31;;;-5.20;100.00
68193;BME280;55012;47.562;18.414;2022-12-18T07:58:22;101585.75;;;-5.16;100.00
68193;BME280;55012;47.562;18.414;2022-12-18T08:00:47;101590.69;;;-5.13;100.00
68193;BME280;55012;47.562;18.414;2022-12-18T08:03:13;101589.50;;;-5.10;100.00
68193;BME280;55012;47.562;18.414;2022-12-18T08:05:38;101598.50;;;-5.04;100.00
68193;BME280;55012;47.562;18.414;2022-12-18T08:08:04;101599.38;;;-4.97;100.00
68193;BME280;55012;47.562;18.414;2022-12-18T08:10:29;101609.84;;;-4.89;100.00
68193;BME280;55012;47.562;18.414;2022-12-18T08:12:55;101604.28;;;-4.79;100.00
68193;BME280;55012;47.562;18.414;2022-12-18T08:15:20;101608.81;;;-4.73;100.00
68193;BME280;55012;47.562;18.414;2022-12-18T08:17:46;101614.34;;;-4.68;100.00
68193;BME280;55012;47.562;18.414;2022-12-18T08:20:11;101617.44;;;-4.65;100.00
68193;BME280;55012;47.562;18.414;2022-12-18T08:22:39;101615.25;;;-4.61;100.00
68193;BME280;55012;47.562;18.414;2022-12-18T08:25:04;101620.34;;;-4.60;100.00
68193;BME280;55012;47.562;18.414;2022-12-18T08:27:30;101617.50;;;-4.58;100.00
68193;BME280;55012;47.562;18.414;2022-12-18T08:29:56;101622.41;;;-4.55;100.00
68193;BME280;55012;47.562;18.414;2022-12-18T08:32:22;101620.22;;;-4.52;100.00
68193;BME280;55012;47.562;18.414;2022-12-18T08:34:47;101618.69;;;-4.46;100.00
68193;BME280;55012;47.562;18.414;2022-12-18T08:37:13;101623.38;;;-4.41;100.00
68193;BME280;55012;47.562;18.414;2022-12-18T08:39:38;101624.00;;;-4.39;100.00
68193;BME280;55012;47.562;18.414;2022-12-18T08:42:04;101632.41;;;-4.36;100.00
68193;BME280;55012;47.562;18.414;2022-12-18T08:44:48;101634.03;;;-4.35;100.00
68193;BME280;55012;47.562;18.414;2022-12-18T08:47:27;101626.53;;;-4.31;100.00
68193;BME280;55012;47.562;18.414;2022-12-18T08:49:52;101631.44;;;-4.28;100.00
68193;BME280;55012;47.562;18.414;2022-12-18T08:52:18;101629.63;;;-4.28;100.00
68193;BME280;55012;47.562;18.414;2022-12-18T08:54:43;101630.44;;;-4.27;100.00
68193;BME280;55012;47.562;18.414;2022-12-18T08:57:09;101635.16;;;-4.22;100.00
68193;BME280;55012;47.562;18.414;2022-12-18T08:59:34;101636.44;;;-4.18;100.00
68193;BME280;55012;47.562;18.414;2022-12-18T09:02:00;101646.06;;;-4.11;100.00
68193;BME280;55012;47.562;18.414;2022-12-18T09:04:25;101645.47;;;-4.06;100.00
68193;BME280;55012;47.562;18.414;2022-12-18T09:06:51;101642.06;;;-4.00;100.00
68193;BME280;55012;47.562;18.414;2022-12-18T09:09:16;101642.34;;;-3.95;100.00
68193;BME280;55012;47.562;18.414;2022-12-18T09:11:42;101649.19;;;-4.01;100.00
68193;BME280;55012;47.562;18.414;2022-12-18T09:14:09;101634.16;;;-4.00;100.00
68193;BME280;55012;47.562;18.414;2022-12-18T09:16:35;101639.25;;;-3.99;100.00
68193;BME280;55012;47.562;18.414;2022-12-18T09:19:02;101650.06;;;-3.93;100.00
68193;BME280;55012;47.562;18.414;2022-12-18T09:21:31;101653.97;;;-3.89;100.00
68193;BME280;55012;47.562;18.414;2022-12-18T09:23:57;101666.00;;;-3.87;100.00
68193;BME280;55012;47.562;18.414;2022-12-18T09:26:23;101662.28;;;-3.92;100.00
68193;BME280;55012;47.562;18.414;2022-12-18T09:28:49;101675.69;;;-3.94;100.00
68193;BME280;55012;47.562;18.414;2022-12-18T09:31:16;101668.19;;;-3.90;100.00
68193;BME280;55012;47.562;18.414;2022-12-18T09:33:42;101678.03;;;-3.84;100.00
68193;BME280;55012;47.562;18.414;2022-12-18T09:36:11;101677.75;;;-3.89;100.00
68193;BME280;55012;47.562;18.414;2022-12-18T09:38:37;101667.00;;;-3.88;100.00
68193;BME280;55012;47.562;18.414;2022-12-18T09:41:13;101667.69;;;-3.79;100.00
68193;BME280;55012;47.562;18.414;2022-12-18T09:43:45;101667.56;;;-3.71;100.00
68193;BME280;55012;47.562;18.414;2022-12-18T09:46:19;101685.28;;;-3.65;100.00
68193;BME280;55012;47.562;18.414;2022-12-18T09:48:49;101687.19;;;-3.59;100.00
68193;BME280;55012;47.562;18.414;2022-12-18T09:51:25;101684.00;;;-3.48;100.00
68193;BME280;55012;47.562;18.414;2022-12-18T09:54:20;101684.25;;;-3.43;100.00
68193;BME280;55012;47.562;18.414;2022-12-18T09:56:47;101683.38;;;-3.50;100.00
68193;BME280;55012;47.562;18.414;2022-12-18T09:59:39;101685.03;;;-3.49;100.00
68193;BME280;55012;47.562;18.414;2022-12-18T10:02:23;101694.03;;;-3.43;100.00
68193;BME280;55012;47.562;18.414;2022-12-18T10:05:12;101694.66;;;-3.41;100.00
68193;BME280;55012;47.562;18.414;2022-12-18T10:08:02;101697.16;;;-3.33;100.00
68193;BME280;55012;47.562;18.414;2022-12-18T10:10:52;101700.47;;;-3.24;100.00
68193;BME280;55012;47.562;18.414;2022-12-18T10:13:31;101700.91;;;-3.21;100.00
68193;BME280;55012;47.562;18.414;2022-12-18T10:19:15;101705.47;;;-3.08;100.00
68193;BME280;55012;47.562;18.414;2022-12-18T10:22:11;101710.81;;;-3.01;100.00
68193;BME280;55012;47.562;18.414;2022-12-18T10:24:45;101707.59;;;-2.97;100.00
68193;BME280;55012;47.562;18.414;2022-12-18T10:27:18;101717.38;;;-2.91;100.00
68193;BME280;55012;47.562;18.414;2022-12-18T10:29:45;101710.91;;;-2.88;100.00
68193;BME280;55012;47.562;18.414;2022-12-18T10:32:17;101711.31;;;-2.85;100.00
68193;BME280;55012;47.562;18.414;2022-12-18T10:34:49;101711.75;;;-2.81;100.00
68193;BME280;55012;47.562;18.414;2022-12-18T10:37:20;101720.53;;;-2.74;100.00
68193;BME280;55012;47.562;18.414;2022-12-18T10:40:07;101716.50;;;-2.70;100.00
68193;BME280;55012;47.562;18.414;2022-12-18T10:42:32;101716.53;;;-2.63;100.00
68193;BME280;55012;47.562;18.414;2022-12-18T10:45:09;101714.09;;;-2.58;100.00
68193;BME280;55012;47.562;18.414;2022-12-18T10:47:36;101717.78;;;-2.52;100.00
68193;BME280;55012;47.562;18.414;2022-12-18T10:50:02;101717.38;;;-2.49;100.00
68193;BME280;55012;47.562;18.414;2022-12-18T10:52:28;101715.56;;;-2.49;100.00
68193;BME280;55012;47.562;18.414;2022-12-18T10:54:58;101710.69;;;-2.45;100.00
68193;BME280;55012;47.562;18.414;2022-12-18T10:57:30;101708.44;;;-2.42;100.00
68193;BME280;55012;47.562;18.414;2022-12-18T10:59:58;101706.25;;;-2.38;100.00
68193;BME280;55012;47.562;18.414;2022-12-18T11:02:33;101710.94;;;-2.34;100.00
68193;BME280;55012;47.562;18.414;2022-12-18T11:05:01;101711.78;;;-2.27;100.00
68193;BME280;55012;47.562;18.414;2022-12-18T11:07:48;101707.69;;;-2.29;100.00
68193;BME280;55012;47.562;18.414;2022-12-18T11:10:17;101711.78;;;-2.27;100.00
68193;BME280;55012;47.562;18.414;2022-12-18T11:12:43;101713.84;;;-2.22;100.00
68193;BME280;55012;47.562;18.414;2022-12-18T11:15:16;101703.41;;;-2.23;100.00
68193;BME280;55012;47.562;18.414;2022-12-18T11:17:48;101712.41;;;-2.18;100.00
68193;BME280;55012;47.562;18.414;2022-12-18T11:20:32;101702.63;;;-2.17;100.00
68193;BME280;55012;47.562;18.414;2022-12-18T11:23:01;101698.94;;;-2.16;100.00
68193;BME280;55012;47.562;18.414;2022-12-18T11:25:28;101701.63;;;-2.10;100.00
68193;BME280;55012;47.562;18.414;2022-12-18T11:27:59;101701.84;;;-2.05;100.00
68193;BME280;55012;47.562;18.414;2022-12-18T11:30:36;101703.69;;;-1.99;100.00
68193;BME280;55012;47.562;18.414;2022-12-18T11:33:21;101699.00;;;-1.96;100.00
68193;BME280;55012;47.562;18.414;2022-12-18T11:35:56;101694.09;;;-1.93;100.00
68193;BME280;55012;47.562;18.414;2022-12-18T11:41:27;101682.47;;;-1.85;100.00
68193;BME280;55012;47.562;18.414;2022-12-18T11:44:22;101680.66;;;-1.78;100.00
68193;BME280;55012;47.562;18.414;2022-12-18T11:46:55;101668.19;;;-1.78;100.00
68193;BME280;55012;47.562;18.414;2022-12-18T11:49:26;101666.78;;;-1.74;100.00
68193;BME280;55012;47.562;18.414;2022-12-18T11:52:00;101665.75;;;-1.73;100.00
68193;BME280;55012;47.562;18.414;2022-12-18T11:54:27;101662.09;;;-1.72;100.00
68193;BME280;55012;47.562;18.414;2022-12-18T11:57:02;101670.06;;;-1.72;100.00
68193;BME280;55012;47.562;18.414;2022-12-18T11:59:35;101674.94;;;-1.68;100.00
68193;BME280;55012;47.562;18.414;2022-12-18T12:07:26;101671.06;;;-1.66;100.00
68193;BME280;55012;47.562;18.414;2022-12-18T12:13:17;101674.31;;;-1.57;100.00
68193;BME280;55012;47.562;18.414;2022-12-18T12:23:51;101657.56;;;-1.31;100.00
68193;BME280;55012;47.562;18.414;2022-12-18T12:29:18;101655.09;;;-1.33;100.00
68193;BME280;55012;47.562;18.414;2022-12-18T12:37:16;101665.72;;;-1.33;100.00
68193;BME280;55012;47.562;18.414;2022-12-18T12:39:46;101667.97;;;-1.30;100.00
68193;BME280;55012;47.562;18.414;2022-12-18T12:42:35;101676.97;;;-1.31;100.00
68193;BME280;55012;47.562;18.414;2022-12-18T12:45:37;101675.13;;;-1.30;100.00
68193;BME280;55012;47.562;18.414;2022-12-18T12:48:14;101676.75;;;-1.29;100.00
68193;BME280;55012;47.562;18.414;2022-12-18T12:50:41;101675.13;;;-1.30;100.00
68193;BME280;55012;47.562;18.414;2022-12-18T12:53:09;101682.47;;;-1.26;100.00
68193;BME280;55012;47.562;18.414;2022-12-18T12:55:41;101689.63;;;-1.20;100.00
68193;BME280;55012;47.562;18.414;2022-12-18T12:58:31;101690.22;;;-1.18;100.00
68193;BME280;55012;47.562;18.414;2022-12-18T13:03:58;101704.50;;;-1.05;100.00
68193;BME280;55012;47.562;18.414;2022-12-18T13:09:10;101710.03;;;-1.07;100.00
68193;BME280;55012;47.562;18.414;2022-12-18T13:11:43;101703.50;;;-1.11;100.00
68193;BME280;55012;47.562;18.414;2022-12-18T13:19:43;101697.97;;;-1.16;100.00
68193;BME280;55012;47.562;18.414;2022-12-18T13:22:22;101686.53;;;-1.17;100.00
68193;BME280;55012;47.562;18.414;2022-12-18T13:24:49;101696.78;;;-1.20;100.00
68193;BME280;55012;47.562;18.414;2022-12-18T13:35:42;101715.19;;;-1.32;100.00
68193;BME280;55012;47.562;18.414;2022-12-18T13:48:36;101712.72;;;-1.40;100.00
68193;BME280;55012;47.562;18.414;2022-12-18T13:51:08;101715.56;;;-1.42;100.00
68193;BME280;55012;47.562;18.414;2022-12-18T13:53:38;101712.50;;;-1.45;100.00
68193;BME280;55012;47.562;18.414;2022-12-18T13:56:08;101715.97;;;-1.45;100.00
68193;BME280;55012;47.562;18.414;2022-12-18T13:58:33;101724.97;;;-1.46;100.00
68193;BME280;55012;47.562;18.414;2022-12-18T14:00:59;101728.03;;;-1.49;100.00
68193;BME280;55012;47.562;18.414;2022-12-18T14:03:29;101724.97;;;-1.52;100.00
68193;BME280;55012;47.562;18.414;2022-12-18T14:06:05;101731.09;;;-1.52;100.00